Time;durP1;ratioP1;P1;durP2;ratioP2;P2;SDS_P1;SDS_P2;PMS_P1;PMS_P2;Temp;Humidity;BMP_temperature;BMP_pressure;BME280_temperature;BME280_humidity;BME280_pressure;Samples;Min_cycle;Max_cycle;Signal;HPM_P1;HPM_P2
2023/11/18 00:00:27;;;;;;;19.15;14.30;;;6.20;99.90;;;;;;5039309;28;20995;-78
2023/11/18 00:02:53;;;;;;;18.40;12.20;;;6.20;99.90;;;;;;5043828;28;20215;-77
2023/11/18 00:05:19;;;;;;;20.43;13.50;;;6.20;99.90;;;;;;5046964;28;20654;-78
2023/11/18 00:07:44;;;;;;;20.97;14.00;;;6.20;99.90;;;;;;5046020;28;20233;-77
2023/11/18 00:10:10;;;;;;;25.27;15.27;;;6.10;99.90;;;;;;5074583;28;20587;-77
2023/11/18 00:12:41;;;;;;;23.47;15.60;;;6.10;99.90;;;;;;5046359;28;20197;-78
2023/11/18 00:15:11;;;;;;;31.27;18.27;;;6.10;99.90;;;;;;5047926;28;20592;-77
2023/11/18 00:17:40;;;;;;;17.95;12.52;;;6.20;99.90;;;;;;5048304;28;20170;-78
2023/11/18 00:20:09;;;;;;;25.50;15.77;;;6.20;99.90;;;;;;5039294;28;20273;-77
2023/11/18 00:22:39;;;;;;;35.92;18.52;;;6.20;99.90;;;;;;5044643;28;20212;-77
2023/11/18 00:25:07;;;;;;;25.83;16.38;;;6.20;99.90;;;;;;5075662;28;20265;-76
2023/11/18 00:27:35;;;;;;;27.25;16.30;;;6.20;99.90;;;;;;5036503;28;20174;-77
2023/11/18 00:30:04;;;;;;;24.52;15.55;;;6.20;99.90;;;;;;5042171;28;20257;-77
2023/11/18 00:32:31;;;;;;;25.40;16.33;;;6.30;99.90;;;;;;5031176;28;20265;-77
2023/11/18 00:34:57;;;;;;;23.00;13.95;;;6.30;99.90;;;;;;5058544;28;20268;-77
2023/11/18 00:37:23;;;;;;;24.17;15.07;;;6.30;99.90;;;;;;5082842;28;20512;-77
2023/11/18 00:39:49;;;;;;;23.53;15.60;;;6.40;99.90;;;;;;5034194;28;20603;-78
2023/11/18 00:42:15;;;;;;;34.53;20.43;;;6.50;99.90;;;;;;5017527;28;20648;-78
2023/11/18 00:44:41;;;;;;;28.50;16.90;;;6.50;99.90;;;;;;5050495;28;20194;-78
2023/11/18 00:47:08;;;;;;;32.80;17.90;;;6.50;99.90;;;;;;5052198;28;20173;-78
2023/11/18 00:49:33;;;;;;;35.75;19.63;;;6.50;99.90;;;;;;5052494;28;20156;-78
2023/11/18 00:52:00;;;;;;;25.98;15.57;;;6.50;99.90;;;;;;5037846;28;20194;-77
2023/11/18 00:54:28;;;;;;;25.70;15.60;;;6.50;99.90;;;;;;5053959;28;20174;-78
2023/11/18 00:56:54;;;;;;;25.35;14.88;;;6.50;99.90;;;;;;5053015;28;20181;-78
2023/11/18 00:59:22;;;;;;;26.93;15.53;;;6.60;99.90;;;;;;5035445;28;20654;-78
2023/11/18 01:01:49;;;;;;;24.88;15.32;;;6.60;99.90;;;;;;5032242;28;20198;-78
2023/11/18 01:04:15;;;;;;;24.35;15.68;;;6.60;99.90;;;;;;5048331;28;20284;-78
2023/11/18 01:06:42;;;;;;;28.33;17.23;;;6.60;99.90;;;;;;5046479;28;20173;-78
2023/11/18 01:09:09;;;;;;;27.58;16.30;;;6.60;99.90;;;;;;5053108;28;20581;-78
2023/11/18 01:11:35;;;;;;;27.30;15.63;;;6.60;99.90;;;;;;5067349;28;20186;-78
2023/11/18 01:14:02;;;;;;;29.23;16.05;;;6.60;99.90;;;;;;5026100;28;20174;-78
2023/11/18 01:16:28;;;;;;;24.40;14.70;;;6.60;99.90;;;;;;5063592;28;20166;-77
2023/11/18 01:18:54;;;;;;;23.50;16.48;;;6.60;99.90;;;;;;5055325;28;20182;-77
2023/11/18 01:21:23;;;;;;;21.05;13.48;;;6.60;99.90;;;;;;5038912;28;20192;-79
2023/11/18 01:23:49;;;;;;;33.30;17.10;;;6.60;99.90;;;;;;5056456;28;20212;-78
2023/11/18 01:26:15;;;;;;;25.10;16.30;;;6.70;99.90;;;;;;5057724;28;20178;-78
2023/11/18 01:28:45;;;;;;;31.30;18.65;;;6.60;99.90;;;;;;5055417;28;20576;-78
2023/11/18 01:31:11;;;;;;;25.17;14.98;;;6.60;99.90;;;;;;5081332;28;20196;-78
2023/11/18 01:33:40;;;;;;;27.40;16.65;;;6.70;99.90;;;;;;5056028;28;20201;-77
2023/11/18 01:36:08;;;;;;;26.67;15.80;;;6.70;99.90;;;;;;5080471;28;20209;-78
2023/11/18 01:38:39;;;;;;;30.50;16.60;;;6.70;99.90;;;;;;5088436;28;20313;-78
2023/11/18 01:41:06;;;;;;;24.55;15.45;;;6.70;99.90;;;;;;5061872;23;20317;-77
2023/11/18 01:43:32;;;;;;;32.42;18.45;;;6.70;99.90;;;;;;5015127;28;20259;-76
2023/11/18 01:46:10;;;;;;;27.35;17.10;;;6.70;99.90;;;;;;5015045;28;20185;-77
2023/11/18 01:48:42;;;;;;;30.38;17.60;;;6.70;99.90;;;;;;5014899;28;20646;-77
2023/11/18 01:51:12;;;;;;;31.65;17.38;;;6.70;99.90;;;;;;4998857;28;20221;-77
2023/11/18 01:53:39;;;;;;;26.33;16.77;;;6.70;99.90;;;;;;5032602;28;20200;-77
2023/11/18 01:56:06;;;;;;;25.63;17.42;;;6.70;99.90;;;;;;5032876;28;20174;-76
2023/11/18 01:58:36;;;;;;;24.88;17.15;;;6.70;99.90;;;;;;5014432;28;20594;-77
2023/11/18 02:01:07;;;;;;;27.98;17.85;;;6.70;99.90;;;;;;5015184;28;20189;-77
2023/11/18 02:03:34;;;;;;;29.77;19.85;;;6.70;99.90;;;;;;4999935;28;20221;-76
2023/11/18 02:06:04;;;;;;;25.95;16.08;;;6.80;99.90;;;;;;5019315;28;20166;-76
2023/11/18 02:08:36;;;;;;;27.50;16.48;;;6.80;99.90;;;;;;4998136;28;20186;-77
2023/11/18 02:11:41;;;;;;;28.70;17.90;;;6.80;99.90;;;;;;5032667;28;20711;-76
2023/11/18 02:14:13;;;;;;;24.63;17.55;;;6.80;99.90;;;;;;4998508;28;20169;-76
2023/11/18 02:16:43;;;;;;;26.45;16.00;;;6.80;99.90;;;;;;4982210;28;20177;-76
2023/11/18 02:19:26;;;;;;;30.23;18.38;;;6.80;99.90;;;;;;4998048;28;20185;-76
2023/11/18 02:21:56;;;;;;;27.20;16.23;;;6.80;99.90;;;;;;4990827;28;20200;-76
2023/11/18 02:24:36;;;;;;;24.10;16.65;;;6.80;99.90;;;;;;4994203;28;20201;-76
2023/11/18 02:27:05;;;;;;;21.00;14.70;;;6.80;99.90;;;;;;5014252;28;20177;-76
2023/11/18 02:29:37;;;;;;;20.58;13.63;;;6.80;99.90;;;;;;5032169;28;20169;-76
2023/11/18 02:32:22;;;;;;;25.65;16.15;;;6.90;99.90;;;;;;4997986;28;20251;-76
2023/11/18 02:35:02;;;;;;;23.88;15.32;;;6.90;99.90;;;;;;5006709;28;20212;-76
2023/11/18 02:37:32;;;;;;;22.65;13.80;;;6.90;99.90;;;;;;4998019;28;20223;-76
2023/11/18 02:40:08;;;;;;;28.08;17.55;;;6.90;99.90;;;;;;4998246;28;20251;-76
2023/11/18 02:42:37;;;;;;;26.70;17.27;;;6.90;99.90;;;;;;5017072;28;20216;-76
2023/11/18 02:45:06;;;;;;;22.20;15.23;;;6.90;99.90;;;;;;5014297;28;20228;-76
2023/11/18 02:47:33;;;;;;;23.60;15.00;;;6.90;99.90;;;;;;4998209;28;20174;-76
2023/11/18 02:50:05;;;;;;;27.08;18.63;;;6.90;99.90;;;;;;4998486;28;20162;-75
2023/11/18 02:52:33;;;;;;;26.00;15.82;;;6.90;99.90;;;;;;4981714;28;20193;-76
2023/11/18 02:55:03;;;;;;;22.25;16.13;;;7.00;99.90;;;;;;4998248;28;20182;-76
2023/11/18 02:57:29;;;;;;;22.60;13.93;;;7.00;99.90;;;;;;5032766;28;20523;-75
2023/11/18 02:59:54;;;;;;;21.20;15.90;;;6.90;99.90;;;;;;4998753;28;20177;-78
2023/11/18 03:02:20;;;;;;;23.73;15.37;;;6.90;99.90;;;;;;5003152;28;20237;-75
2023/11/18 03:04:46;;;;;;;24.13;14.77;;;6.90;99.90;;;;;;4999705;28;20194;-76
2023/11/18 03:07:12;;;;;;;19.57;13.60;;;6.90;99.90;;;;;;5013961;28;20678;-77
2023/11/18 03:09:39;;;;;;;25.07;16.63;;;7.00;99.90;;;;;;4996977;28;20391;-77
2023/11/18 03:12:07;;;;;;;23.30;16.25;;;7.00;99.90;;;;;;4981244;28;20189;-77
2023/11/18 03:14:34;;;;;;;27.90;17.35;;;7.00;99.90;;;;;;5013897;28;20574;-77
2023/11/18 03:17:01;;;;;;;22.85;15.60;;;7.00;99.90;;;;;;4997385;28;20631;-77
2023/11/18 03:19:27;;;;;;;21.38;14.20;;;7.00;99.90;;;;;;5000012;28;20177;-77
2023/11/18 03:21:53;;;;;;;19.42;13.73;;;7.10;99.90;;;;;;4997082;28;20228;-77
2023/11/18 03:24:19;;;;;;;22.80;14.60;;;7.00;99.90;;;;;;5031118;28;20683;-77
2023/11/18 03:26:44;;;;;;;27.10;17.73;;;7.00;99.90;;;;;;4997166;28;20177;-77
2023/11/18 03:29:12;;;;;;;26.67;17.57;;;7.00;99.90;;;;;;5013494;28;20178;-77
2023/11/18 03:31:38;;;;;;;22.08;15.50;;;7.00;99.90;;;;;;5030968;28;20205;-77
2023/11/18 03:34:04;;;;;;;24.03;16.17;;;7.00;99.90;;;;;;5013278;28;20778;-76
2023/11/18 03:36:30;;;;;;;26.30;16.77;;;7.00;99.90;;;;;;5030917;28;20232;-77
2023/11/18 03:38:55;;;;;;;26.80;17.90;;;6.90;99.90;;;;;;5013312;28;20700;-76
2023/11/18 03:41:23;;;;;;;23.17;15.70;;;6.90;99.90;;;;;;5013058;28;20624;-76
2023/11/18 03:43:49;;;;;;;26.95;17.73;;;6.90;99.90;;;;;;5012950;28;20229;-76
2023/11/18 03:46:15;;;;;;;27.02;17.20;;;6.80;99.90;;;;;;4996810;28;20173;-76
2023/11/18 03:48:44;;;;;;;20.93;14.53;;;6.90;99.90;;;;;;4996897;28;20223;-76
2023/11/18 03:51:09;;;;;;;26.02;16.52;;;6.80;99.90;;;;;;4996562;28;20193;-76
2023/11/18 03:53:35;;;;;;;21.20;14.57;;;6.80;99.90;;;;;;5012719;28;20539;-76
2023/11/18 03:56:02;;;;;;;25.20;15.90;;;6.80;99.90;;;;;;5015761;28;20166;-76
2023/11/18 03:58:28;;;;;;;21.60;14.35;;;6.80;99.90;;;;;;5030552;28;20182;-76
2023/11/18 04:00:54;;;;;;;26.52;18.30;;;6.70;99.90;;;;;;5030654;28;20201;-76
2023/11/18 04:03:19;;;;;;;26.33;16.87;;;6.70;99.90;;;;;;4996363;28;20192;-76
2023/11/18 04:05:45;;;;;;;20.70;14.70;;;6.60;99.90;;;;;;5030526;28;20178;-77
2023/11/18 04:08:11;;;;;;;19.00;13.20;;;6.70;99.90;;;;;;5012918;28;20182;-77
2023/11/18 04:10:38;;;;;;;22.50;14.35;;;6.70;99.90;;;;;;5030465;28;20173;-76
2023/11/18 04:13:07;;;;;;;19.57;13.60;;;6.70;99.90;;;;;;4996385;28;20180;-77
2023/11/18 04:15:32;;;;;;;23.42;14.90;;;6.70;99.90;;;;;;4980314;28;20180;-77
2023/11/18 04:17:59;;;;;;;23.67;15.50;;;6.70;99.90;;;;;;5012995;28;20173;-77
2023/11/18 04:20:25;;;;;;;23.38;14.93;;;6.70;99.90;;;;;;5012831;28;20996;-76
2023/11/18 04:22:51;;;;;;;21.87;13.57;;;6.70;99.90;;;;;;4999436;28;20224;-77
2023/11/18 04:25:17;;;;;;;18.05;12.90;;;6.70;99.90;;;;;;5034380;28;20236;-76
2023/11/18 04:27:44;;;;;;;22.77;14.73;;;6.70;99.90;;;;;;5034268;28;20658;-77
2023/11/18 04:30:10;;;;;;;20.90;13.20;;;6.70;99.90;;;;;;5034374;28;20197;-77
2023/11/18 04:32:36;;;;;;;20.00;14.18;;;6.70;99.90;;;;;;5019632;28;20194;-77
2023/11/18 04:35:07;;;;;;;22.58;14.98;;;6.80;99.90;;;;;;5016553;28;20224;-76
2023/11/18 04:37:35;;;;;;;27.77;19.05;;;6.80;99.90;;;;;;5000277;28;20177;-77
2023/11/18 04:40:06;;;;;;;21.73;15.30;;;6.80;99.90;;;;;;5000304;28;20201;-77
2023/11/18 04:42:31;;;;;;;23.80;16.10;;;6.80;99.90;;;;;;4999298;28;20232;-76
2023/11/18 04:44:58;;;;;;;24.40;17.60;;;6.80;99.90;;;;;;5016201;28;20746;-77
2023/11/18 04:47:27;;;;;;;27.85;16.85;;;6.70;99.90;;;;;;5000504;28;20177;-76
2023/11/18 04:49:52;;;;;;;26.70;17.63;;;6.70;99.90;;;;;;5034102;28;20174;-77
2023/11/18 04:52:18;;;;;;;26.70;16.23;;;6.70;99.90;;;;;;5033672;28;20198;-76
2023/11/18 04:54:47;;;;;;;22.03;16.43;;;6.70;99.90;;;;;;5033927;28;20188;-77
2023/11/18 04:57:16;;;;;;;28.23;18.77;;;6.70;99.90;;;;;;5016032;28;20946;-76
2023/11/18 04:59:43;;;;;;;23.67;15.20;;;6.70;99.90;;;;;;5015975;28;20247;-76
2023/11/18 05:02:08;;;;;;;25.40;17.10;;;6.70;99.90;;;;;;4999581;28;20244;-76
2023/11/18 05:04:34;;;;;;;23.37;15.63;;;6.70;99.90;;;;;;5033781;28;20229;-77
2023/11/18 05:07:00;;;;;;;27.90;17.70;;;6.70;99.90;;;;;;5016144;28;20670;-76
2023/11/18 05:09:25;;;;;;;25.23;16.97;;;6.70;99.90;;;;;;5035323;28;20170;-76
2023/11/18 05:11:52;;;;;;;22.60;16.00;;;6.80;99.90;;;;;;5000793;28;20209;-77
2023/11/18 05:14:20;;;;;;;26.83;18.25;;;6.80;99.90;;;;;;5015862;28;20577;-77
2023/11/18 05:16:47;;;;;;;27.00;17.38;;;6.70;99.90;;;;;;4999477;28;20205;-76
2023/11/18 05:19:14;;;;;;;25.70;15.32;;;6.80;99.90;;;;;;5033606;28;20551;-76
2023/11/18 05:21:40;;;;;;;26.05;16.52;;;6.80;99.90;;;;;;5033594;28;20205;-76
2023/11/18 05:24:07;;;;;;;25.10;16.30;;;6.80;99.90;;;;;;4999741;28;20221;-76
2023/11/18 05:26:34;;;;;;;23.92;16.98;;;6.80;99.90;;;;;;4999993;28;20572;-76
2023/11/18 05:29:01;;;;;;;27.85;17.85;;;6.80;99.90;;;;;;4999969;28;20213;-76
2023/11/18 05:31:30;;;;;;;29.27;18.60;;;6.80;99.90;;;;;;5021039;28;20288;-75
2023/11/18 05:33:56;;;;;;;23.80;17.65;;;6.80;99.90;;;;;;5002146;28;20181;-76
2023/11/18 05:36:27;;;;;;;27.77;17.67;;;6.90;99.90;;;;;;5017497;28;20232;-76
2023/11/18 05:38:53;;;;;;;22.27;16.05;;;6.80;99.90;;;;;;5017915;28;20665;-77
2023/11/18 05:41:27;;;;;;;27.55;18.05;;;6.90;99.90;;;;;;5019584;28;20296;-77
2023/11/18 05:43:56;;;;;;;18.52;12.82;;;6.90;99.90;;;;;;5033715;28;20213;-76
2023/11/18 05:46:29;;;;;;;31.55;19.48;;;6.90;99.90;;;;;;5000313;28;20209;-76
2023/11/18 05:48:55;;;;;;;25.45;16.85;;;6.90;99.90;;;;;;5018745;28;20232;-76
2023/11/18 05:51:24;;;;;;;26.92;18.73;;;6.90;99.90;;;;;;4999055;28;20675;-76
2023/11/18 05:53:52;;;;;;;27.27;19.27;;;6.90;99.90;;;;;;4999246;28;20216;-76
2023/11/18 05:56:19;;;;;;;24.08;16.58;;;6.90;99.90;;;;;;5033367;28;20177;-76
2023/11/18 05:58:45;;;;;;;25.25;16.75;;;6.90;99.90;;;;;;5015542;28;20239;-76
2023/11/18 06:01:12;;;;;;;22.88;15.90;;;6.90;99.90;;;;;;5033445;28;20208;-76
2023/11/18 06:03:41;;;;;;;22.88;15.70;;;6.90;99.90;;;;;;5032924;28;20205;-76
2023/11/18 06:06:17;;;;;;;24.40;16.65;;;6.90;99.90;;;;;;5015303;28;20181;-76
2023/11/18 06:08:43;;;;;;;22.77;15.40;;;6.90;99.90;;;;;;5033142;28;20180;-75
2023/11/18 06:11:12;;;;;;;24.90;17.63;;;7.00;99.90;;;;;;5033358;28;20190;-75
2023/11/18 06:13:48;;;;;;;24.17;16.63;;;7.00;99.90;;;;;;5032851;28;20671;-75
2023/11/18 06:16:22;;;;;;;28.02;19.05;;;7.00;99.90;;;;;;4999045;28;20204;-76
2023/11/18 06:18:50;;;;;;;20.63;16.45;;;7.00;99.90;;;;;;5015361;28;20199;-75
2023/11/18 06:21:18;;;;;;;22.60;15.13;;;7.00;99.90;;;;;;5032798;28;20197;-75
2023/11/18 06:23:45;;;;;;;17.42;14.00;;;7.10;99.90;;;;;;5015816;28;20205;-75
2023/11/18 06:26:11;;;;;;;22.38;16.23;;;7.10;99.90;;;;;;5016388;28;20280;-75
2023/11/18 06:28:42;;;;;;;23.13;15.35;;;7.10;99.90;;;;;;4998825;28;20181;-76
2023/11/18 06:31:11;;;;;;;23.42;15.02;;;7.10;99.90;;;;;;5033026;28;20206;-75
2023/11/18 06:33:42;;;;;;;21.77;15.57;;;7.10;99.90;;;;;;4998467;28;20201;-76
2023/11/18 06:36:19;;;;;;;19.88;14.00;;;7.10;99.90;;;;;;4998142;28;20174;-76
2023/11/18 06:38:50;;;;;;;20.17;14.40;;;7.20;99.90;;;;;;5014575;28;20240;-76
2023/11/18 06:41:17;;;;;;;23.27;15.55;;;7.20;99.90;;;;;;5014291;28;20205;-77
2023/11/18 06:46:24;;;;;;;22.55;15.30;;;7.20;99.90;;;;;;5014253;28;20646;-75
2023/11/18 06:48:54;;;;;;;20.30;14.32;;;7.20;99.90;;;;;;4997887;28;20212;-76
2023/11/18 06:51:24;;;;;;;18.92;12.80;;;7.20;99.90;;;;;;5031797;28;20201;-76
2023/11/18 06:53:50;;;;;;;21.27;15.40;;;7.20;99.90;;;;;;5013837;28;20186;-76
2023/11/18 06:56:17;;;;;;;21.35;13.85;;;7.20;99.90;;;;;;5014102;28;20239;-76
2023/11/18 06:58:43;;;;;;;20.27;13.98;;;7.30;99.90;;;;;;5031769;28;20178;-76
2023/11/18 07:01:13;;;;;;;18.88;13.45;;;7.30;99.90;;;;;;5016855;28;20213;-76
2023/11/18 07:03:41;;;;;;;20.50;15.75;;;7.30;99.90;;;;;;5014012;28;20189;-74
2023/11/18 07:06:07;;;;;;;18.98;13.70;;;7.30;99.90;;;;;;5009884;28;20176;-76
2023/11/18 07:08:36;;;;;;;17.65;13.27;;;7.30;99.90;;;;;;5008311;28;20213;-76
2023/11/18 07:11:02;;;;;;;18.60;12.55;;;7.30;99.90;;;;;;5031857;28;20189;-77
2023/11/18 07:13:29;;;;;;;20.48;15.27;;;7.40;99.90;;;;;;5020441;28;20201;-77
2023/11/18 07:15:57;;;;;;;16.17;12.40;;;7.40;99.90;;;;;;5013546;28;20176;-76
2023/11/18 07:18:26;;;;;;;16.50;11.75;;;7.40;99.90;;;;;;4980905;28;20182;-77
2023/11/18 07:20:52;;;;;;;17.65;12.70;;;7.50;99.90;;;;;;5013358;28;20595;-77
2023/11/18 07:23:19;;;;;;;19.30;13.95;;;7.50;99.90;;;;;;5031057;28;20169;-76
2023/11/18 07:25:45;;;;;;;16.55;12.77;;;7.50;99.90;;;;;;5031200;28;20274;-76
2023/11/18 07:28:14;;;;;;;14.63;10.90;;;7.50;99.90;;;;;;5030545;28;20250;-75
2023/11/18 07:30:42;;;;;;;17.25;13.32;;;7.50;99.90;;;;;;5030828;28;20242;-75
2023/11/18 07:33:11;;;;;;;19.00;13.02;;;7.50;99.90;;;;;;5012793;28;20177;-76
2023/11/18 07:35:39;;;;;;;20.05;13.80;;;7.50;99.90;;;;;;5013086;28;20655;-75
2023/11/18 07:38:07;;;;;;;20.83;14.43;;;7.50;99.90;;;;;;4997819;28;20545;-75
2023/11/18 07:40:33;;;;;;;16.05;11.05;;;7.50;99.90;;;;;;4998535;28;20169;-74
2023/11/18 07:43:02;;;;;;;21.40;13.50;;;7.60;99.90;;;;;;5028652;28;20597;-74
2023/11/18 07:45:37;;;;;;;15.05;11.80;;;7.60;99.90;;;;;;5012958;28;20197;-73
2023/11/18 07:48:12;;;;;;;17.50;12.68;;;7.60;99.90;;;;;;5029947;28;20170;-75
2023/11/18 07:50:40;;;;;;;18.08;11.52;;;7.60;99.90;;;;;;5009094;28;20252;-73
2023/11/18 07:53:07;;;;;;;16.67;12.00;;;7.70;99.90;;;;;;5023936;28;20647;-75
2023/11/18 07:55:34;;;;;;;14.73;10.55;;;7.70;99.90;;;;;;5024927;28;20185;-73
2023/11/18 07:58:03;;;;;;;15.32;10.82;;;7.70;99.90;;;;;;4994360;28;20169;-73
2023/11/18 08:00:33;;;;;;;15.75;11.60;;;7.70;99.90;;;;;;5011995;28;20277;-73
2023/11/18 08:03:00;;;;;;;18.08;11.13;;;7.80;99.90;;;;;;5013578;28;20185;-74
2023/11/18 08:05:29;;;;;;;15.57;11.75;;;7.80;99.90;;;;;;5012808;28;20217;-74
2023/11/18 08:07:55;;;;;;;13.80;9.95;;;7.80;99.90;;;;;;4995525;28;20583;-74
2023/11/18 08:10:21;;;;;;;14.40;10.63;;;7.80;99.90;;;;;;5029085;28;20315;-74
2023/11/18 08:12:47;;;;;;;14.65;11.88;;;7.80;99.90;;;;;;5012279;28;20225;-74
2023/11/18 08:15:13;;;;;;;16.50;11.23;;;7.80;99.90;;;;;;5030522;28;20236;-73
2023/11/18 08:17:39;;;;;;;15.27;11.02;;;7.90;99.90;;;;;;5030286;28;21176;-72
2023/11/18 08:20:13;;;;;;;16.70;11.50;;;7.80;99.90;;;;;;5012675;28;20181;-72
2023/11/18 08:22:45;;;;;;;13.63;10.15;;;7.90;99.90;;;;;;5012421;28;20223;-73
2023/11/18 08:25:12;;;;;;;15.55;10.30;;;8.00;99.90;;;;;;5012788;28;20205;-73
2023/11/18 08:27:41;;;;;;;17.13;12.82;;;7.90;99.90;;;;;;4996333;28;20177;-75
2023/11/18 08:30:12;;;;;;;10.80;8.85;;;8.00;99.90;;;;;;5012715;28;20181;-73
2023/11/18 08:32:44;;;;;;;14.18;10.85;;;8.10;99.90;;;;;;5030261;28;20200;-73
2023/11/18 08:35:13;;;;;;;18.63;10.98;;;8.10;99.90;;;;;;5013108;28;20352;-73
2023/11/18 08:37:43;;;;;;;15.25;10.82;;;8.10;99.90;;;;;;5015796;28;20173;-74
2023/11/18 08:40:20;;;;;;;12.98;9.43;;;8.10;99.90;;;;;;5031525;28;20319;-74
2023/11/18 08:42:50;;;;;;;13.25;10.80;;;8.20;99.90;;;;;;5028768;28;20217;-73
2023/11/18 08:45:29;;;;;;;12.50;10.20;;;8.20;99.90;;;;;;5012050;28;20277;-76
2023/11/18 08:47:59;;;;;;;13.15;9.20;;;8.20;99.90;;;;;;5028903;28;20529;-76
2023/11/18 08:50:25;;;;;;;15.82;11.32;;;8.30;99.90;;;;;;5011191;28;20260;-76
2023/11/18 08:52:58;;;;;;;12.98;10.05;;;8.40;99.90;;;;;;4994964;28;20597;-75
2023/11/18 08:55:53;;;;;;;10.63;9.32;;;8.40;99.90;;;;;;5014715;28;20177;-74
2023/11/18 08:58:34;;;;;;;10.50;8.38;;;8.40;99.90;;;;;;5012517;28;20644;-73
2023/11/18 09:01:12;;;;;;;12.18;8.73;;;8.50;99.90;;;;;;4996348;28;20576;-73
2023/11/18 09:03:42;;;;;;;12.57;10.05;;;8.50;99.90;;;;;;4996046;28;20199;-72
2023/11/18 09:06:25;;;;;;;11.63;8.57;;;8.60;99.90;;;;;;5011235;28;20165;-73
2023/11/18 09:08:54;;;;;;;12.27;9.43;;;8.60;99.90;;;;;;5010527;28;20669;-73
2023/11/18 09:11:22;;;;;;;13.90;10.38;;;8.60;99.90;;;;;;4999404;28;20194;-74
2023/11/18 09:14:03;;;;;;;15.23;9.80;;;8.70;99.90;;;;;;5015252;28;20170;-75
2023/11/18 09:16:29;;;;;;;11.45;9.02;;;8.70;99.90;;;;;;5027717;28;20324;-73
2023/11/18 09:18:59;;;;;;;10.00;7.90;;;8.70;99.90;;;;;;5015972;28;20279;-73
2023/11/18 09:21:29;;;;;;;13.82;10.57;;;8.80;99.90;;;;;;5015760;28;20305;-73
2023/11/18 09:23:56;;;;;;;10.00;8.77;;;8.80;99.90;;;;;;4994911;28;20778;-74
2023/11/18 09:26:22;;;;;;;12.20;9.85;;;8.80;99.90;;;;;;5033389;28;20182;-73
2023/11/18 09:28:49;;;;;;;11.35;9.45;;;8.90;99.90;;;;;;4999145;28;20174;-72
2023/11/18 09:31:16;;;;;;;14.10;10.82;;;8.80;99.90;;;;;;5033225;28;20589;-72
2023/11/18 09:33:51;;;;;;;12.00;8.70;;;8.90;99.90;;;;;;4998890;28;20178;-73
2023/11/18 09:36:18;;;;;;;13.10;9.38;;;8.90;99.90;;;;;;5015309;28;20327;-73
2023/11/18 09:38:46;;;;;;;13.05;9.05;;;8.90;99.90;;;;;;5033168;28;20204;-73
2023/11/18 09:41:12;;;;;;;12.18;8.95;;;8.90;99.90;;;;;;5014321;28;20209;-73
2023/11/18 09:43:45;;;;;;;11.25;8.57;;;8.90;99.90;;;;;;4997489;28;20177;-73
2023/11/18 09:46:12;;;;;;;12.32;11.00;;;8.90;99.90;;;;;;5015121;28;20573;-73
2023/11/18 09:49:01;;;;;;;10.85;9.40;;;9.00;99.90;;;;;;4998832;28;20268;-73
2023/11/18 09:51:38;;;;;;;11.02;9.23;;;9.00;99.90;;;;;;5009166;28;20249;-72
2023/11/18 09:54:36;;;;;;;10.57;8.02;;;9.00;99.90;;;;;;5028764;28;20606;-73
2023/11/18 09:57:26;;;;;;;13.88;10.45;;;9.00;99.90;;;;;;5029943;28;20178;-73
2023/11/18 10:00:20;;;;;;;10.45;8.48;;;9.00;99.90;;;;;;5014691;28;20280;-73
2023/11/18 10:02:50;;;;;;;14.85;10.85;;;9.10;99.90;;;;;;5014485;28;20237;-73
2023/11/18 10:05:20;;;;;;;11.23;10.02;;;9.20;99.90;;;;;;5024819;28;20251;-73
2023/11/18 10:07:47;;;;;;;10.55;8.13;;;9.20;99.90;;;;;;4998517;28;20619;-73
2023/11/18 10:10:16;;;;;;;9.05;7.93;;;9.20;99.90;;;;;;5014794;28;20237;-73
2023/11/18 10:12:51;;;;;;;9.52;7.50;;;9.30;99.90;;;;;;5032005;22;20212;-75
2023/11/18 10:15:23;;;;;;;12.25;8.75;;;9.30;99.90;;;;;;5048986;28;20222;-75
2023/11/18 10:20:51;;;;;;;10.40;7.55;;;9.40;99.90;;;;;;5008509;28;20460;-75
2023/11/18 10:23:21;;;;;;;8.35;6.70;;;9.40;99.90;;;;;;5020107;28;20192;-75
2023/11/18 10:25:48;;;;;;;10.90;9.10;;;9.50;99.90;;;;;;5048215;28;20205;-75
2023/11/18 10:28:33;;;;;;;8.98;7.40;;;9.50;99.90;;;;;;5052012;28;20165;-77
2023/11/18 10:31:04;;;;;;;9.45;7.18;;;9.60;99.90;;;;;;5051094;28;20604;-78
2023/11/18 10:33:35;;;;;;;8.77;7.13;;;9.70;99.90;;;;;;5043558;28;20624;-77
2023/11/18 10:36:06;;;;;;;10.50;6.97;;;9.70;99.90;;;;;;5043450;28;20654;-78
2023/11/18 10:38:43;;;;;;;11.32;6.75;;;9.70;99.90;;;;;;5036746;28;20177;-79
2023/11/18 10:41:09;;;;;;;9.57;7.35;;;9.70;99.90;;;;;;5019680;28;20181;-78
2023/11/18 10:43:35;;;;;;;9.50;6.95;;;9.70;99.90;;;;;;5038682;28;20200;-78
2023/11/18 10:46:13;;;;;;;8.02;7.22;;;9.70;99.90;;;;;;5030644;28;20642;-77
2023/11/18 10:48:48;;;;;;;9.07;7.22;;;9.70;99.90;;;;;;5021369;28;20169;-78
2023/11/18 10:51:16;;;;;;;8.50;7.15;;;9.70;99.90;;;;;;5015526;28;20814;-77
2023/11/18 10:54:00;;;;;;;8.95;6.53;;;9.70;99.90;;;;;;5018598;28;20201;-78
2023/11/18 10:56:28;;;;;;;9.63;6.10;;;9.70;99.90;;;;;;5014005;28;20182;-78
2023/11/18 10:58:56;;;;;;;8.45;6.90;;;9.70;99.90;;;;;;5048505;28;20207;-78
2023/11/18 11:01:44;;;;;;;9.50;7.13;;;9.70;99.90;;;;;;5050529;28;20181;-78
2023/11/18 11:04:16;;;;;;;9.70;6.32;;;9.70;99.90;;;;;;5036727;28;20255;-78
2023/11/18 11:06:52;;;;;;;8.73;5.85;;;9.70;99.90;;;;;;5044735;28;20248;-78
2023/11/18 11:09:27;;;;;;;8.60;6.10;;;9.70;99.90;;;;;;5037691;28;20584;-78
2023/11/18 11:11:56;;;;;;;7.03;5.22;;;9.70;99.90;;;;;;5033811;28;20268;-78
2023/11/18 11:14:24;;;;;;;8.13;6.43;;;9.70;99.90;;;;;;5016617;28;20259;-78
2023/11/18 11:16:59;;;;;;;8.70;6.70;;;9.70;99.90;;;;;;5020439;28;20185;-78
2023/11/18 11:19:27;;;;;;;7.85;6.35;;;9.60;99.90;;;;;;5070737;28;20179;-78
2023/11/18 11:22:05;;;;;;;11.40;8.07;;;9.60;99.90;;;;;;5025267;28;20173;-78
2023/11/18 11:24:54;;;;;;;7.90;6.28;;;9.60;99.90;;;;;;5038440;28;20251;-78
2023/11/18 11:27:39;;;;;;;8.98;6.63;;;9.60;99.90;;;;;;5017164;28;20513;-78
2023/11/18 11:30:21;;;;;;;9.40;6.03;;;9.60;99.90;;;;;;5023193;28;20174;-78
2023/11/18 11:33:27;;;;;;;9.23;6.95;;;9.50;99.90;;;;;;5033532;28;20198;-78
2023/11/18 11:35:59;;;;;;;9.35;5.55;;;9.40;99.90;;;;;;5028062;28;20272;-78
2023/11/18 11:38:26;;;;;;;6.68;5.68;;;9.50;99.90;;;;;;5018055;28;20169;-78
2023/11/18 11:40:55;;;;;;;9.73;6.00;;;9.50;99.90;;;;;;5000737;28;20236;-79
2023/11/18 11:43:21;;;;;;;13.32;7.88;;;9.50;99.90;;;;;;5013030;28;20196;-79
2023/11/18 11:45:51;;;;;;;10.60;7.75;;;9.40;99.90;;;;;;5020326;28;20204;-79
2023/11/18 11:48:28;;;;;;;9.93;7.85;;;9.50;99.90;;;;;;4996912;28;20178;-79
2023/11/18 11:51:13;;;;;;;8.95;8.05;;;9.50;99.90;;;;;;5045700;28;20714;-79
2023/11/18 11:53:45;;;;;;;9.45;6.10;;;9.50;99.90;;;;;;5012727;28;20197;-79
2023/11/18 11:56:20;;;;;;;8.85;6.63;;;9.60;99.90;;;;;;5029520;28;20583;-78
2023/11/18 11:58:51;;;;;;;11.40;6.53;;;9.50;99.90;;;;;;5039030;28;20173;-79
2023/11/18 12:01:35;;;;;;;12.38;6.75;;;9.60;99.90;;;;;;5007906;28;20246;-79
2023/11/18 12:04:20;;;;;;;6.55;5.55;;;9.60;99.90;;;;;;5007939;28;20700;-79
2023/11/18 12:06:47;;;;;;;9.68;6.80;;;9.60;99.90;;;;;;5042299;28;20226;-79
2023/11/18 12:09:23;;;;;;;8.10;6.47;;;9.70;99.90;;;;;;5046966;28;20177;-78
2023/11/18 12:11:49;;;;;;;15.20;9.50;;;9.70;99.90;;;;;;5012727;28;20170;-79
2023/11/18 12:17:07;;;;;;;9.70;6.70;;;9.70;99.90;;;;;;5048261;28;20169;-78
2023/11/18 12:19:46;;;;;;;8.80;6.43;;;9.70;99.90;;;;;;5044517;28;20181;-78
2023/11/18 12:22:26;;;;;;;10.20;6.68;;;9.70;99.90;;;;;;5024153;28;20230;-79
2023/11/18 12:24:58;;;;;;;9.20;6.40;;;9.80;99.90;;;;;;5050326;28;20544;-78
2023/11/18 12:27:43;;;;;;;8.20;6.97;;;9.70;99.90;;;;;;5042483;28;20168;-78
2023/11/18 12:30:15;;;;;;;8.85;6.43;;;9.80;99.90;;;;;;5022746;28;20177;-79
2023/11/18 12:33:09;;;;;;;7.60;6.45;;;9.80;99.90;;;;;;5044804;28;20254;-78
2023/11/18 12:36:17;;;;;;;6.85;5.93;;;9.80;99.90;;;;;;5032726;28;20188;-78
2023/11/18 12:39:13;;;;;;;7.32;5.35;;;9.80;99.90;;;;;;5026401;28;20209;-79
2023/11/18 12:41:42;;;;;;;11.07;6.78;;;9.90;99.90;;;;;;5029218;28;20231;-79
2023/11/18 12:44:35;;;;;;;7.47;6.13;;;9.90;99.90;;;;;;5035890;28;20579;-78
2023/11/18 12:47:20;;;;;;;6.78;5.20;;;9.80;99.90;;;;;;5028068;28;20173;-79
2023/11/18 12:49:54;;;;;;;8.65;6.30;;;9.90;99.90;;;;;;5036400;28;20180;-79
2023/11/18 12:52:21;;;;;;;9.07;6.70;;;9.90;99.90;;;;;;5044454;28;20177;-78
2023/11/18 12:54:50;;;;;;;17.98;10.23;;;9.90;99.90;;;;;;5051562;28;20181;-78
2023/11/18 12:57:17;;;;;;;18.60;13.40;;;9.90;99.90;;;;;;5036200;28;20208;-79
2023/11/18 12:59:43;;;;;;;15.82;11.43;;;9.90;99.90;;;;;;5024634;28;20268;-78
2023/11/18 13:02:19;;;;;;;15.02;9.68;;;9.90;99.90;;;;;;5017536;28;20177;-78
2023/11/18 13:04:47;;;;;;;15.50;11.27;;;9.90;99.90;;;;;;5036046;28;20200;-78